Ana Sayfa
METAR-TAF:

METAR-TAF

Havaalanları :

Lansing Municipal Airport

Lansing, Illinois, Amerika Birleşik Devletleri

Enlem: 41-32-24N, Boylam: 087-31-56W, yükseklik: 188 m

Güncel hava durumu gözlemi

Rapor saat 13:35 UTC de 23 dakika önce yapıldı.
Rüzgar batı/güneybatıdan 12 kt
Sıcaklık 24°C
Nem 78%
Basınç 1014 hPa
Görüş mesafesi: 16.1 km
Açık gökyüzü

METAR: KIGQ 251335Z AUTO 25012KT 10SM CLR 24/20 A2994 RMK AO2 T02430195

Saat: 08:58 (13:58 UTC)


TAF: eksik

4.000'den fazla havaalanı için hava durumu gözlemleri ve tahminleri (METAR ve TAF raporları).

Kullanılabilir istasyonlar harita üzerinde sarı ve kırmızı noktalarla gösterilir.

İstasyonun adını görmek için fareyi noktanın üzerinde gezdirin.

Sonrasında hava gözlem ve tahminlerini görmek için tıklayın.

Haritayı değiştirmek için: yaklaştırmak için siyah artı işaretli yeşil düğmeye ve uzaklaştırmak için de eksi işaretli düğmeye hızla tıklayın; bitişik haritalar için yeşil okları kullanın.


METAR-TAF: